Time;durP1;ratioP1;P1;durP2;ratioP2;P2;SDS_P1;SDS_P2;PMS_P1;PMS_P2;Temp;Humidity;BMP_temperature;BMP_pressure;BME280_temperature;BME280_humidity;BME280_pressure;Samples;Min_cycle;Max_cycle;Signal;HPM_P1;HPM_P2
2021/03/25 00:01:03;;;;;;;10.77;6.25;;;3.00;99.90;;;;;;5024241;28;20540;-78
2021/03/25 00:03:30;;;;;;;13.52;7.38;;;2.80;99.90;;;;;;5013131;28;20094;-78
2021/03/25 00:05:55;;;;;;;12.43;6.15;;;2.60;99.90;;;;;;5029630;28;20073;-79
2021/03/25 00:08:24;;;;;;;9.05;4.88;;;2.40;99.90;;;;;;5030249;28;20097;-78
2021/03/25 00:10:50;;;;;;;11.60;6.47;;;2.20;99.90;;;;;;5024083;28;20083;-79
2021/03/25 00:13:17;;;;;;;13.20;6.45;;;2.10;99.90;;;;;;5011550;28;20107;-77
2021/03/25 00:15:43;;;;;;;12.90;6.95;;;2.10;99.90;;;;;;5018845;28;20093;-75
2021/03/25 00:18:10;;;;;;;11.90;6.90;;;2.60;99.90;;;;;;5020895;28;20094;-78
2021/03/25 00:20:36;;;;;;;12.88;7.97;;;2.70;99.90;;;;;;5029438;28;20077;-76
2021/03/25 00:23:02;;;;;;;12.68;6.32;;;2.50;99.90;;;;;;5021636;28;20128;-77
2021/03/25 00:25:31;;;;;;;12.05;6.63;;;2.20;99.90;;;;;;5012511;28;20075;-77
2021/03/25 00:27:57;;;;;;;12.63;6.63;;;2.10;99.90;;;;;;5019694;28;20122;-77
2021/03/25 00:30:27;;;;;;;11.50;7.45;;;2.10;99.90;;;;;;5016774;28;20540;-78
2021/03/25 00:32:53;;;;;;;11.10;6.43;;;2.00;99.90;;;;;;5010526;28;20129;-76
2021/03/25 00:35:19;;;;;;;15.35;7.65;;;2.10;99.90;;;;;;5015006;28;20456;-78
2021/03/25 00:37:45;;;;;;;12.27;6.30;;;2.00;99.90;;;;;;5009706;28;20094;-77
2021/03/25 00:40:11;;;;;;;12.43;6.80;;;2.00;99.90;;;;;;5010711;28;20145;-76
2021/03/25 00:42:38;;;;;;;15.88;7.65;;;1.90;99.90;;;;;;5012480;28;20084;-77
2021/03/25 00:45:11;;;;;;;12.20;7.05;;;1.80;99.90;;;;;;5028479;28;20162;-77
2021/03/25 00:47:37;;;;;;;13.85;7.68;;;1.70;99.90;;;;;;5015581;28;20499;-77
2021/03/25 00:50:07;;;;;;;12.43;6.95;;;1.70;99.90;;;;;;5027214;28;20081;-77
2021/03/25 00:52:32;;;;;;;12.27;6.78;;;1.80;99.90;;;;;;5016746;28;20074;-77
2021/03/25 00:54:58;;;;;;;12.27;7.13;;;1.80;99.90;;;;;;5024838;28;20092;-77
2021/03/25 00:57:23;;;;;;;12.60;7.65;;;1.80;99.90;;;;;;5009964;28;20132;-77
2021/03/25 00:59:49;;;;;;;12.82;6.53;;;1.80;99.90;;;;;;5009030;28;20075;-77
2021/03/25 01:02:14;;;;;;;12.05;6.93;;;1.80;99.90;;;;;;5013124;28;20101;-78
2021/03/25 01:04:40;;;;;;;12.50;6.90;;;1.80;99.90;;;;;;5011585;28;20086;-78
2021/03/25 01:07:05;;;;;;;12.55;7.03;;;1.70;99.90;;;;;;5015961;28;20107;-77
2021/03/25 01:09:31;;;;;;;12.45;6.93;;;1.80;99.90;;;;;;5026414;28;20074;-76
2021/03/25 01:11:57;;;;;;;13.60;6.90;;;1.80;99.90;;;;;;5029431;28;20107;-78
2021/03/25 01:14:24;;;;;;;11.25;6.45;;;1.80;99.90;;;;;;5018440;28;20086;-76
2021/03/25 01:16:52;;;;;;;13.57;6.63;;;1.70;99.90;;;;;;5009399;28;20094;-77
2021/03/25 01:19:28;;;;;;;10.35;5.55;;;1.70;99.90;;;;;;5017440;28;20124;-77
2021/03/25 01:21:55;;;;;;;11.30;6.03;;;1.90;99.90;;;;;;5013867;28;20074;-76
2021/03/25 01:24:22;;;;;;;11.23;6.82;;;1.90;99.90;;;;;;5014856;28;20066;-78
2021/03/25 01:26:48;;;;;;;11.52;6.45;;;1.90;99.90;;;;;;5022960;28;20134;-76
2021/03/25 01:29:13;;;;;;;13.43;7.22;;;1.90;99.90;;;;;;5011831;28;20499;-76
2021/03/25 01:31:39;;;;;;;13.15;6.63;;;1.90;99.90;;;;;;5013288;28;20140;-76
2021/03/25 01:34:06;;;;;;;11.70;6.40;;;1.90;99.90;;;;;;5015545;28;20081;-76
2021/03/25 01:36:32;;;;;;;13.38;6.47;;;1.90;99.90;;;;;;5025948;28;20105;-76
2021/03/25 01:38:57;;;;;;;13.77;6.38;;;2.00;99.90;;;;;;5011479;28;20067;-77
2021/03/25 01:41:28;;;;;;;11.35;6.60;;;2.10;99.90;;;;;;5012792;28;20074;-75
2021/03/25 01:43:54;;;;;;;12.18;5.93;;;2.10;99.90;;;;;;5025724;28;20084;-77
2021/03/25 01:46:32;;;;;;;11.20;6.45;;;2.10;99.90;;;;;;5020748;28;20077;-77
2021/03/25 01:49:04;;;;;;;15.73;6.28;;;2.00;99.90;;;;;;5027263;28;20090;-77
2021/03/25 01:52:26;;;;;;;9.88;6.00;;;1.90;99.90;;;;;;5015839;28;20077;-77
2021/03/25 01:55:10;;;;;;;10.73;5.85;;;1.90;99.90;;;;;;4969574;28;20150;-77
2021/03/25 01:58:08;;;;;;;9.75;6.10;;;2.00;99.90;;;;;;5019073;28;20468;-77
2021/03/25 02:00:45;;;;;;;12.05;6.57;;;2.10;99.90;;;;;;5019802;28;20153;-77
2021/03/25 02:03:20;;;;;;;10.02;5.38;;;2.00;99.90;;;;;;5032557;28;20071;-75
2021/03/25 02:06:11;;;;;;;13.23;6.35;;;2.10;99.90;;;;;;5038777;28;20109;-75
2021/03/25 02:08:55;;;;;;;10.95;5.60;;;2.00;99.90;;;;;;5034027;28;20479;-77
2021/03/25 02:11:35;;;;;;;11.02;6.55;;;1.90;99.90;;;;;;5021944;28;20104;-76
2021/03/25 02:14:16;;;;;;;11.10;6.53;;;1.80;99.90;;;;;;5022027;28;20107;-75
2021/03/25 02:17:03;;;;;;;10.27;5.38;;;1.80;99.90;;;;;;5012279;28;20528;-76
2021/03/25 02:19:48;;;;;;;10.55;5.10;;;1.70;99.90;;;;;;5016237;28;20544;-77
2021/03/25 02:22:19;;;;;;;8.35;5.00;;;1.70;99.90;;;;;;5012290;28;20157;-76
2021/03/25 02:25:07;;;;;;;9.60;5.40;;;1.60;99.90;;;;;;5006963;28;20529;-75
2021/03/25 02:27:44;;;;;;;8.40;4.95;;;1.80;99.90;;;;;;5025829;28;20098;-76
2021/03/25 02:30:17;;;;;;;10.32;4.80;;;2.00;99.90;;;;;;5031496;28;20073;-76
2021/03/25 02:32:58;;;;;;;9.18;4.95;;;2.10;99.90;;;;;;5019935;28;20077;-77
2021/03/25 02:35:34;;;;;;;8.43;4.72;;;2.00;99.90;;;;;;5018532;28;20184;-76
2021/03/25 02:38:09;;;;;;;7.38;4.78;;;1.80;99.90;;;;;;5014343;28;20105;-77
2021/03/25 02:40:42;;;;;;;8.60;5.10;;;1.70;99.90;;;;;;5011855;28;20074;-76
2021/03/25 02:43:13;;;;;;;8.68;5.30;;;1.70;99.90;;;;;;5012910;28;20120;-76
2021/03/25 02:45:46;;;;;;;8.15;4.97;;;1.70;99.90;;;;;;5017302;28;20075;-76
2021/03/25 02:48:19;;;;;;;8.45;4.15;;;1.70;99.90;;;;;;5011798;28;20094;-76
2021/03/25 02:50:57;;;;;;;7.65;4.30;;;1.90;99.90;;;;;;5012727;28;20074;-77
2021/03/25 02:53:29;;;;;;;5.78;3.72;;;2.10;99.90;;;;;;5022336;28;20161;-77
2021/03/25 02:55:59;;;;;;;8.40;4.43;;;2.10;99.90;;;;;;5024199;28;20547;-76
2021/03/25 02:58:28;;;;;;;5.97;3.45;;;2.00;99.90;;;;;;5022982;28;20097;-77
2021/03/25 03:01:05;;;;;;;6.40;3.00;;;2.00;99.90;;;;;;5029510;28;20078;-77
2021/03/25 03:03:38;;;;;;;6.13;3.70;;;1.90;99.90;;;;;;5022331;28;20078;-76
2021/03/25 03:06:06;;;;;;;6.68;3.72;;;1.70;99.90;;;;;;5024958;28;20070;-77
2021/03/25 03:08:38;;;;;;;4.95;2.88;;;1.60;99.90;;;;;;5025752;28;20128;-77
2021/03/25 03:11:07;;;;;;;5.28;3.13;;;1.40;99.90;;;;;;5011111;28;20082;-76
2021/03/25 03:13:36;;;;;;;5.40;2.95;;;1.50;99.90;;;;;;5018101;28;20078;-75
2021/03/25 03:16:04;;;;;;;5.72;2.92;;;1.40;99.90;;;;;;5026280;28;20097;-76
2021/03/25 03:18:39;;;;;;;5.32;3.15;;;1.40;99.90;;;;;;5014833;28;20575;-76
2021/03/25 03:21:09;;;;;;;7.47;3.45;;;1.70;99.90;;;;;;5012057;28;20135;-76
2021/03/25 03:23:36;;;;;;;4.95;2.70;;;1.70;99.90;;;;;;5021332;28;20082;-76
2021/03/25 03:26:07;;;;;;;5.03;2.55;;;1.70;99.90;;;;;;5012092;28;20224;-76
2021/03/25 03:28:46;;;;;;;4.40;2.42;;;1.60;99.90;;;;;;5028422;28;20185;-76
2021/03/25 03:31:23;;;;;;;3.78;2.15;;;1.50;99.90;;;;;;5016948;28;20066;-76
2021/03/25 03:33:59;;;;;;;3.83;2.05;;;1.50;99.90;;;;;;5028274;28;20076;-75
2021/03/25 03:36:25;;;;;;;3.05;2.10;;;1.50;99.90;;;;;;5017794;28;20070;-76
2021/03/25 03:38:57;;;;;;;4.07;2.30;;;1.40;99.90;;;;;;5012854;28;20711;-76
2021/03/25 03:41:30;;;;;;;2.70;1.88;;;1.60;99.90;;;;;;5010239;28;20075;-76
2021/03/25 03:44:00;;;;;;;4.80;2.25;;;1.50;99.90;;;;;;5025828;28;20117;-76
2021/03/25 03:46:28;;;;;;;2.90;1.52;;;1.40;99.90;;;;;;5019976;28;20075;-76
2021/03/25 03:49:00;;;;;;;4.97;1.45;;;1.50;99.90;;;;;;5016457;28;20507;-76
2021/03/25 03:51:38;;;;;;;4.65;1.77;;;1.50;99.90;;;;;;5010302;28;20132;-76
2021/03/25 03:54:05;;;;;;;3.58;1.67;;;1.50;99.90;;;;;;5011157;28;20074;-75
2021/03/25 03:56:47;;;;;;;2.75;1.77;;;1.30;99.90;;;;;;5014578;28;20207;-76
2021/03/25 03:59:25;;;;;;;1.38;1.15;;;1.40;99.90;;;;;;5027209;28;20078;-76
2021/03/25 04:01:58;;;;;;;6.05;1.70;;;1.50;99.90;;;;;;5013079;28;20077;-76
2021/03/25 04:04:28;;;;;;;2.40;1.30;;;1.40;99.90;;;;;;5008724;28;20591;-76
2021/03/25 04:07:01;;;;;;;2.22;1.42;;;1.40;99.90;;;;;;5010368;28;20105;-76
2021/03/25 04:09:50;;;;;;;3.45;2.00;;;1.40;99.90;;;;;;5029043;28;20069;-76
2021/03/25 04:12:21;;;;;;;2.30;1.42;;;1.40;99.90;;;;;;5030564;28;20066;-76
2021/03/25 04:14:57;;;;;;;1.63;1.30;;;1.20;99.90;;;;;;5026995;28;20109;-76
2021/03/25 04:17:29;;;;;;;2.25;1.10;;;1.30;99.90;;;;;;5009233;28;20086;-77
2021/03/25 04:20:00;;;;;;;1.63;1.30;;;1.40;99.90;;;;;;5009396;28;20525;-75
2021/03/25 04:22:31;;;;;;;3.33;1.80;;;1.40;99.90;;;;;;5009055;28;20077;-76
2021/03/25 04:25:18;;;;;;;2.40;1.17;;;1.40;99.90;;;;;;5012143;28;20077;-76
2021/03/25 04:28:05;;;;;;;4.25;1.35;;;1.30;99.90;;;;;;5017633;28;20168;-76
2021/03/25 04:30:36;;;;;;;3.95;1.40;;;1.40;99.90;;;;;;5010108;28;20101;-77
2021/03/25 04:33:04;;;;;;;2.80;1.48;;;1.30;99.90;;;;;;5010235;28;20074;-75
2021/03/25 04:35:30;;;;;;;3.05;1.42;;;1.40;99.90;;;;;;5009944;28;20074;-76
2021/03/25 04:37:58;;;;;;;3.95;1.35;;;1.30;99.90;;;;;;5026882;28;20518;-76
2021/03/25 04:40:36;;;;;;;1.40;0.90;;;1.10;99.90;;;;;;5026083;28;20126;-77
2021/03/25 04:43:02;;;;;;;1.50;1.00;;;0.90;99.90;;;;;;5023253;28;20081;-76
2021/03/25 04:45:45;;;;;;;3.42;1.77;;;1.10;99.90;;;;;;5019564;28;20090;-76
2021/03/25 04:48:15;;;;;;;3.63;1.48;;;1.30;99.90;;;;;;5009255;28;20117;-76
2021/03/25 04:51:04;;;;;;;1.40;0.85;;;1.20;99.90;;;;;;5011742;28;20073;-76
2021/03/25 04:53:36;;;;;;;2.28;1.10;;;1.20;99.90;;;;;;5018037;28;20121;-76
2021/03/25 04:56:06;;;;;;;5.15;1.50;;;1.00;99.90;;;;;;5019989;28;20584;-75
2021/03/25 04:58:57;;;;;;;7.97;1.67;;;0.90;99.90;;;;;;5017176;28;20094;-76
2021/03/25 05:01:29;;;;;;;2.15;1.15;;;1.10;99.90;;;;;;5014019;28;20095;-76
2021/03/25 05:03:56;;;;;;;5.15;1.20;;;1.20;99.90;;;;;;5013925;28;20082;-76
2021/03/25 05:06:45;;;;;;;3.17;1.20;;;1.20;99.90;;;;;;5014962;28;20078;-76
2021/03/25 05:09:16;;;;;;;5.78;1.35;;;1.30;99.90;;;;;;5018696;28;20117;-77
2021/03/25 05:11:42;;;;;;;2.33;1.13;;;1.50;99.90;;;;;;5013999;28;20452;-76
2021/03/25 05:14:21;;;;;;;2.13;1.05;;;1.50;99.90;;;;;;5014091;28;20075;-77
2021/03/25 05:16:55;;;;;;;2.75;1.85;;;1.40;99.90;;;;;;5021788;28;20467;-76
2021/03/25 05:19:36;;;;;;;2.28;1.35;;;1.50;99.90;;;;;;5013178;28;20144;-77
2021/03/25 05:22:11;;;;;;;2.53;1.33;;;1.30;99.90;;;;;;5013298;28;20076;-76
2021/03/25 05:24:48;;;;;;;2.72;1.17;;;1.20;99.90;;;;;;5016914;28;20227;-77
2021/03/25 05:27:35;;;;;;;2.22;1.13;;;1.20;99.90;;;;;;5020733;28;20136;-76
2021/03/25 05:30:04;;;;;;;2.13;0.90;;;1.20;99.90;;;;;;5013604;28;20113;-77
2021/03/25 05:32:34;;;;;;;1.45;0.90;;;1.40;99.90;;;;;;5017985;28;20189;-77
2021/03/25 05:35:03;;;;;;;2.13;0.95;;;1.30;99.90;;;;;;5013093;28;20126;-77
2021/03/25 05:37:29;;;;;;;2.15;1.05;;;1.50;99.90;;;;;;5015813;28;20560;-76
2021/03/25 05:39:54;;;;;;;2.33;0.98;;;1.50;99.90;;;;;;5025680;28;20085;-76
2021/03/25 05:42:33;;;;;;;3.13;0.90;;;1.40;99.90;;;;;;5019393;28;20095;-76
2021/03/25 05:45:36;;;;;;;1.50;1.00;;;1.20;99.90;;;;;;5031388;28;20078;-76
2021/03/25 05:48:01;;;;;;;2.67;1.27;;;1.40;99.90;;;;;;5051669;28;20117;-75
2021/03/25 05:51:05;;;;;;;7.50;1.10;;;1.30;99.90;;;;;;5032592;28;20289;-77
2021/03/25 05:54:00;;;;;;;3.20;1.20;;;1.40;99.90;;;;;;5015038;28;20101;-76
2021/03/25 05:56:38;;;;;;;1.67;1.02;;;1.70;99.90;;;;;;5025773;28;20070;-76
2021/03/25 05:59:14;;;;;;;2.92;0.98;;;1.90;99.90;;;;;;5013307;28;20074;-76
2021/03/25 06:01:49;;;;;;;1.42;0.75;;;2.00;99.90;;;;;;5030698;28;20078;-76
2021/03/25 06:04:34;;;;;;;2.85;0.90;;;2.00;99.90;;;;;;5029622;28;20105;-76
2021/03/25 06:07:02;;;;;;;1.02;0.80;;;2.10;99.90;;;;;;5024808;28;20125;-77
2021/03/25 06:09:40;;;;;;;3.22;0.90;;;2.10;99.90;;;;;;5016150;28;20603;-75
2021/03/25 06:12:10;;;;;;;1.08;0.93;;;2.20;99.90;;;;;;5017274;28;20082;-75
2021/03/25 06:14:42;;;;;;;1.58;0.85;;;2.30;99.90;;;;;;5012370;28;20102;-76
2021/03/25 06:17:17;;;;;;;2.65;0.93;;;2.30;99.90;;;;;;5010955;28;20233;-76
2021/03/25 06:20:08;;;;;;;1.95;1.00;;;2.20;99.90;;;;;;5010778;28;20078;-76
2021/03/25 06:22:50;;;;;;;0.95;0.73;;;2.50;99.90;;;;;;5011806;28;20109;-77
2021/03/25 06:25:40;;;;;;;2.05;1.00;;;2.50;99.90;;;;;;5013656;28;20145;-76
2021/03/25 06:28:28;;;;;;;2.25;1.20;;;2.60;99.90;;;;;;5015771;28;20102;-76
2021/03/25 06:31:00;;;;;;;1.67;0.80;;;2.70;99.90;;;;;;5030551;28;20085;-77
2021/03/25 06:33:34;;;;;;;2.42;1.30;;;2.80;99.90;;;;;;5029747;28;20547;-77
2021/03/25 06:36:06;;;;;;;1.75;1.17;;;2.90;99.90;;;;;;5019329;28;20081;-76
2021/03/25 06:38:39;;;;;;;1.73;1.13;;;3.00;99.90;;;;;;5027722;28;20106;-77
2021/03/25 06:41:19;;;;;;;5.22;1.20;;;3.10;99.90;;;;;;5021712;28;20074;-76
2021/03/25 06:43:53;;;;;;;1.20;0.90;;;3.20;99.90;;;;;;5026379;28;20088;-77
2021/03/25 06:46:33;;;;;;;3.65;1.98;;;3.20;99.90;;;;;;5012084;28;20634;-77
2021/03/25 06:49:04;;;;;;;5.40;1.35;;;3.30;99.90;;;;;;5014062;28;20101;-77
2021/03/25 06:51:32;;;;;;;2.08;1.10;;;3.50;99.90;;;;;;5023018;28;20074;-77
2021/03/25 06:54:20;;;;;;;5.05;1.35;;;3.80;99.90;;;;;;5034286;28;20085;-76
2021/03/25 06:56:52;;;;;;;2.03;1.15;;;4.20;99.90;;;;;;5018540;28;20090;-76
2021/03/25 06:59:32;;;;;;;3.17;1.25;;;4.50;99.90;;;;;;5015517;28;20106;-77
2021/03/25 07:02:23;;;;;;;2.42;1.33;;;4.80;99.90;;;;;;5020069;28;20070;-77
2021/03/25 07:04:51;;;;;;;2.65;1.30;;;5.30;99.90;;;;;;5020607;28;20492;-76
2021/03/25 07:07:41;;;;;;;1.73;1.00;;;5.50;99.90;;;;;;5016292;28;20153;-79
2021/03/25 07:10:11;;;;;;;2.05;1.50;;;5.80;99.90;;;;;;5011341;28;20087;-78
2021/03/25 07:12:44;;;;;;;3.78;1.58;;;6.00;99.90;;;;;;5017635;28;20081;-78
2021/03/25 07:15:24;;;;;;;3.25;1.50;;;6.20;99.90;;;;;;5018189;28;20102;-77
2021/03/25 07:17:51;;;;;;;2.50;0.98;;;6.50;99.90;;;;;;5010918;28;20098;-76
2021/03/25 07:20:25;;;;;;;2.60;1.33;;;6.70;99.90;;;;;;5014963;28;20075;-76
2021/03/25 07:23:12;;;;;;;2.42;1.60;;;6.90;99.90;;;;;;5016225;28;20090;-77
2021/03/25 07:25:43;;;;;;;3.58;1.27;;;7.10;99.90;;;;;;5009678;28;20124;-78
2021/03/25 07:28:15;;;;;;;4.78;1.30;;;7.30;99.90;;;;;;5020233;28;20102;-78
2021/03/25 07:31:12;;;;;;;3.33;1.45;;;7.40;99.90;;;;;;5025904;28;21161;-77
2021/03/25 07:33:41;;;;;;;4.00;1.58;;;7.60;99.90;;;;;;5020264;28;20090;-77
2021/03/25 07:36:08;;;;;;;4.53;2.17;;;7.80;99.90;;;;;;5013132;28;20174;-77
2021/03/25 07:38:39;;;;;;;3.88;1.20;;;7.80;99.90;;;;;;5012634;28;20100;-78
2021/03/25 07:41:10;;;;;;;3.45;1.48;;;8.00;99.90;;;;;;5014456;28;20098;-78
2021/03/25 07:44:17;;;;;;;6.93;1.67;;;8.30;99.90;;;;;;5015653;28;20177;-78
2021/03/25 07:46:43;;;;;;;3.60;1.63;;;8.50;99.90;;;;;;5005203;28;20137;-78
2021/03/25 07:49:12;;;;;;;4.03;1.88;;;8.30;99.90;;;;;;5022203;28;20098;-78
2021/03/25 07:51:45;;;;;;;3.90;1.33;;;8.80;99.90;;;;;;5020916;28;20070;-77
2021/03/25 07:54:18;;;;;;;5.22;1.52;;;9.00;99.90;;;;;;5016194;28;20401;-76
2021/03/25 07:56:58;;;;;;;2.67;1.40;;;9.00;99.90;;;;;;5014590;28;20510;-82
2021/03/25 07:59:28;;;;;;;4.07;1.70;;;9.10;99.90;;;;;;5021132;28;20077;-76
2021/03/25 08:01:54;;;;;;;3.17;1.75;;;9.30;99.90;;;;;;5027115;28;20181;-77
2021/03/25 08:04:28;;;;;;;5.18;1.60;;;9.30;99.90;;;;;;5024366;28;20492;-77
2021/03/25 08:07:09;;;;;;;6.22;1.83;;;9.60;99.90;;;;;;5014466;28;20252;-77
2021/03/25 08:09:46;;;;;;;2.53;1.90;;;9.50;99.90;;;;;;5014421;28;20128;-77
2021/03/25 08:12:21;;;;;;;3.78;2.30;;;9.50;98.80;;;;;;5022667;28;20483;-77
2021/03/25 08:14:48;;;;;;;3.60;1.98;;;9.80;98.80;;;;;;5011740;28;20119;-76
2021/03/25 08:17:34;;;;;;;5.45;1.80;;;10.00;97.80;;;;;;5010648;28;20164;-76
2021/03/25 08:20:08;;;;;;;6.10;2.55;;;10.30;98.10;;;;;;5023640;28;20073;-76
2021/03/25 08:23:03;;;;;;;3.88;1.90;;;10.20;96.00;;;;;;5021233;28;20070;-75
2021/03/25 08:25:28;;;;;;;3.33;2.08;;;10.30;97.30;;;;;;5024868;28;20073;-75
2021/03/25 08:28:03;;;;;;;4.68;2.15;;;10.40;96.60;;;;;;5015347;28;20102;-76
2021/03/25 08:30:48;;;;;;;;;;;10.50;97.20;;;;;;5011655;28;20093;-75
2021/03/25 08:33:50;;;;;;;3.83;1.42;;;10.20;98.40;;;;;;5030148;28;19957;-76
2021/03/25 08:36:21;;;;;;;4.85;2.50;;;10.50;99.40;;;;;;5019329;28;20070;-76
2021/03/25 08:39:11;;;;;;;5.28;2.75;;;10.20;97.30;;;;;;5014269;28;20082;-76
2021/03/25 08:41:46;;;;;;;9.98;3.65;;;10.50;95.00;;;;;;5017317;28;20106;-76
2021/03/25 08:44:26;;;;;;;5.78;2.92;;;10.70;93.20;;;;;;5020772;28;20526;-76
2021/03/25 08:47:05;;;;;;;6.65;3.22;;;10.80;94.60;;;;;;5019614;28;20098;-77
2021/03/25 08:49:44;;;;;;;8.68;4.30;;;10.60;93.40;;;;;;5019537;28;20472;-76
2021/03/25 08:52:14;;;;;;;7.85;3.75;;;10.50;94.00;;;;;;5016172;28;20066;-76
2021/03/25 08:54:59;;;;;;;9.25;3.63;;;10.70;93.70;;;;;;5016164;28;20552;-76
2021/03/25 08:57:29;;;;;;;5.45;3.47;;;10.70;94.70;;;;;;5021423;28;20551;-77
2021/03/25 09:00:14;;;;;;;7.47;3.40;;;10.70;96.30;;;;;;5030172;28;20085;-77
2021/03/25 09:02:52;;;;;;;6.32;2.88;;;10.70;95.90;;;;;;5012919;28;20089;-76
2021/03/25 09:05:47;;;;;;;7.15;3.00;;;11.10;95.70;;;;;;5014542;28;20183;-75
2021/03/25 09:08:17;;;;;;;7.38;3.45;;;11.10;93.80;;;;;;4988728;28;20571;-75
2021/03/25 09:10:47;;;;;;;10.32;3.63;;;11.40;95.10;;;;;;5020836;28;20074;-76
2021/03/25 09:13:23;;;;;;;7.38;4.47;;;11.30;93.80;;;;;;5022035;28;20170;-76
2021/03/25 09:15:51;;;;;;;5.30;2.97;;;11.40;94.40;;;;;;5019003;28;20141;-77
2021/03/25 09:18:20;;;;;;;7.60;3.47;;;11.40;93.90;;;;;;5018807;28;20097;-76
2021/03/25 09:20:49;;;;;;;10.35;4.07;;;11.40;94.70;;;;;;5017391;28;20070;-76
2021/03/25 09:23:30;;;;;;;5.72;3.47;;;11.50;93.60;;;;;;5030271;28;20112;-78
2021/03/25 09:26:02;;;;;;;8.60;3.50;;;11.60;93.40;;;;;;5030512;28;20957;-78
2021/03/25 09:28:52;;;;;;;5.53;3.00;;;11.50;92.20;;;;;;5040332;28;20106;-76
2021/03/25 09:31:19;;;;;;;9.50;3.30;;;11.60;94.80;;;;;;5038739;28;20074;-76
2021/03/25 09:33:54;;;;;;;8.00;3.85;;;11.40;95.40;;;;;;5017980;28;20102;-76
2021/03/25 09:36:20;;;;;;;8.85;4.40;;;11.70;94.20;;;;;;5011303;28;20093;-77
2021/03/25 09:38:51;;;;;;;11.55;4.70;;;11.80;93.80;;;;;;5012970;28;20103;-76
2021/03/25 09:41:35;;;;;;;9.90;5.05;;;11.90;91.80;;;;;;5013124;28;20193;-76
2021/03/25 09:44:18;;;;;;;7.18;3.85;;;11.80;92.30;;;;;;5013829;28;20508;-76
2021/03/25 09:46:58;;;;;;;10.23;4.75;;;11.80;93.70;;;;;;5015118;28;20248;-77
2021/03/25 09:49:33;;;;;;;10.77;4.90;;;11.80;94.70;;;;;;5018953;28;20189;-76
2021/03/25 09:52:08;;;;;;;12.07;6.30;;;12.00;93.50;;;;;;5016475;28;20098;-76
2021/03/25 09:54:37;;;;;;;10.95;5.22;;;12.00;94.10;;;;;;5030753;28;20065;-77
2021/03/25 09:57:30;;;;;;;10.18;6.38;;;12.20;93.10;;;;;;5023255;28;20109;-78
2021/03/25 10:00:22;;;;;;;10.82;6.28;;;12.20;92.40;;;;;;5028692;28;20631;-77
2021/03/25 10:02:49;;;;;;;10.63;5.78;;;12.40;92.40;;;;;;5012539;28;20606;-77
2021/03/25 10:05:35;;;;;;;11.73;5.90;;;12.40;90.60;;;;;;5015233;28;20062;-78
2021/03/25 10:08:09;;;;;;;11.65;5.88;;;12.20;92.80;;;;;;5026824;28;20560;-78
2021/03/25 10:10:38;;;;;;;13.85;6.32;;;12.20;91.60;;;;;;5011512;28;20164;-77
2021/03/25 10:13:05;;;;;;;12.25;6.43;;;12.20;91.30;;;;;;5022478;28;20066;-77
2021/03/25 10:15:30;;;;;;;13.55;7.10;;;12.10;92.00;;;;;;5016549;28;20078;-76
2021/03/25 10:17:58;;;;;;;12.32;6.00;;;12.00;92.60;;;;;;5027606;28;20248;-76
2021/03/25 10:20:49;;;;;;;11.40;6.63;;;11.90;91.30;;;;;;5015438;28;20082;-77
2021/03/25 10:23:20;;;;;;;12.43;6.28;;;12.10;90.70;;;;;;5016531;28;20071;-78
2021/03/25 10:25:50;;;;;;;14.77;6.78;;;12.20;92.80;;;;;;5027711;28;20148;-77
2021/03/25 10:28:24;;;;;;;11.18;6.15;;;12.20;91.90;;;;;;5019591;28;20570;-78
2021/03/25 10:30:59;;;;;;;14.65;6.38;;;12.50;90.80;;;;;;5017833;28;20085;-77
2021/03/25 10:33:27;;;;;;;11.95;5.35;;;12.50;89.10;;;;;;5016636;28;20081;-77
2021/03/25 10:36:06;;;;;;;9.40;5.55;;;12.20;91.60;;;;;;5023117;28;20070;-76
2021/03/25 10:38:44;;;;;;;14.02;6.65;;;12.30;91.40;;;;;;5024031;28;20462;-76
2021/03/25 10:41:23;;;;;;;12.43;6.65;;;12.30;90.40;;;;;;5013582;28;20135;-76
2021/03/25 10:43:50;;;;;;;11.45;6.32;;;12.60;90.30;;;;;;5016641;28;20225;-76
2021/03/25 10:46:36;;;;;;;10.77;6.15;;;12.60;90.30;;;;;;5013533;28;20539;-78
2021/03/25 10:49:09;;;;;;;11.45;6.15;;;12.70;90.50;;;;;;5024027;28;20090;-77
2021/03/25 10:51:41;;;;;;;13.68;6.97;;;12.90;89.90;;;;;;5016229;28;20098;-77
2021/03/25 10:54:29;;;;;;;12.32;6.18;;;12.90;87.10;;;;;;5019114;28;20170;-76
2021/03/25 10:57:14;;;;;;;14.13;6.47;;;13.00;90.60;;;;;;5014668;28;20113;-76
2021/03/25 11:00:04;;;;;;;10.38;6.28;;;12.80;88.80;;;;;;5011307;28;20611;-76
2021/03/25 11:02:40;;;;;;;9.68;5.80;;;13.10;89.60;;;;;;5011296;28;20433;-76
2021/03/25 11:05:14;;;;;;;16.10;7.65;;;13.20;87.70;;;;;;5019545;28;20108;-77
2021/03/25 11:07:44;;;;;;;10.73;7.05;;;13.10;87.20;;;;;;5028470;28;20773;-76
2021/03/25 11:10:39;;;;;;;13.63;6.93;;;13.30;87.20;;;;;;5010294;28;20479;-76
2021/03/25 11:13:12;;;;;;;12.65;6.10;;;13.40;90.50;;;;;;5025028;28;20102;-77
2021/03/25 11:16:18;;;;;;;10.40;6.20;;;13.30;85.60;;;;;;5015452;28;20086;-76
2021/03/25 11:19:05;;;;;;;11.30;6.43;;;13.20;86.60;;;;;;5015865;28;20097;-77
2021/03/25 11:21:33;;;;;;;13.32;7.10;;;13.20;82.50;;;;;;5020670;28;20460;-76
2021/03/25 11:24:03;;;;;;;13.05;6.55;;;13.30;85.40;;;;;;5025851;28;20078;-76
2021/03/25 11:26:29;;;;;;;12.73;7.20;;;13.30;84.30;;;;;;5026105;28;20097;-77
2021/03/25 11:28:55;;;;;;;14.18;7.88;;;13.40;84.20;;;;;;5015032;28;20087;-76
2021/03/25 11:31:30;;;;;;;14.18;7.32;;;13.40;84.70;;;;;;5010658;28;20677;-76
2021/03/25 11:33:57;;;;;;;13.15;6.28;;;13.80;84.40;;;;;;5017999;28;20084;-75
2021/03/25 11:36:45;;;;;;;13.70;6.97;;;13.60;82.10;;;;;;5025387;28;20070;-76
2021/03/25 11:39:14;;;;;;;14.15;6.72;;;13.80;85.50;;;;;;5010760;28;20074;-76
2021/03/25 11:41:40;;;;;;;14.30;6.43;;;13.50;83.10;;;;;;5012847;28;20074;-77
2021/03/25 11:44:07;;;;;;;13.05;7.13;;;13.50;85.10;;;;;;5019155;28;20071;-77
2021/03/25 11:46:40;;;;;;;14.73;6.88;;;13.30;86.00;;;;;;5025788;28;20462;-79
2021/03/25 11:49:11;;;;;;;16.10;8.00;;;13.70;83.70;;;;;;5024002;28;20124;-76
2021/03/25 11:51:41;;;;;;;13.57;7.50;;;13.90;80.20;;;;;;5024061;28;20088;-77
2021/03/25 11:54:34;;;;;;;13.63;7.25;;;13.70;85.10;;;;;;5025672;28;20070;-76
2021/03/25 11:57:26;;;;;;;12.40;6.75;;;13.80;83.70;;;;;;5014539;28;20105;-77
2021/03/25 12:00:07;;;;;;;13.30;7.47;;;13.90;87.40;;;;;;5011585;28;20542;-76
2021/03/25 12:02:33;;;;;;;14.40;7.55;;;13.80;86.70;;;;;;5024502;28;20135;-76
2021/03/25 12:05:20;;;;;;;13.80;7.95;;;13.90;83.30;;;;;;5018582;28;20549;-79
2021/03/25 12:07:46;;;;;;;12.55;6.78;;;13.80;80.00;;;;;;5008596;28;20188;-77
2021/03/25 12:10:15;;;;;;;13.70;7.05;;;13.90;80.60;;;;;;5010418;28;20070;-76
2021/03/25 12:12:45;;;;;;;15.05;7.72;;;14.00;82.10;;;;;;5004255;28;20062;-75
2021/03/25 12:15:12;;;;;;;13.35;6.65;;;14.10;80.60;;;;;;5001368;28;20078;-77
2021/03/25 12:17:48;;;;;;;14.32;7.93;;;14.20;81.70;;;;;;5009259;28;20102;-76
2021/03/25 12:20:25;;;;;;;12.60;7.20;;;14.10;78.20;;;;;;5017667;28;20078;-76
2021/03/25 12:22:59;;;;;;;12.55;7.85;;;14.10;76.90;;;;;;5025445;28;20122;-76
2021/03/25 12:25:25;;;;;;;14.25;7.57;;;14.00;77.70;;;;;;5018448;28;20080;-77
2021/03/25 12:27:51;;;;;;;16.17;7.00;;;14.10;79.90;;;;;;5022699;28;20094;-77
2021/03/25 12:30:17;;;;;;;10.77;6.68;;;14.10;75.80;;;;;;5025407;28;20077;-77
2021/03/25 12:32:43;;;;;;;17.02;8.50;;;14.30;76.90;;;;;;5018053;28;21103;-77
2021/03/25 12:35:13;;;;;;;13.15;6.68;;;14.30;73.30;;;;;;5016055;28;20078;-77
2021/03/25 12:37:39;;;;;;;12.02;7.05;;;13.90;74.70;;;;;;5017846;28;20195;-77
2021/03/25 12:40:07;;;;;;;13.25;6.80;;;14.10;77.00;;;;;;5013030;28;20556;-78
2021/03/25 12:42:34;;;;;;;12.95;7.15;;;14.10;73.00;;;;;;5020733;28;20081;-78
2021/03/25 12:44:59;;;;;;;12.93;6.78;;;14.30;72.60;;;;;;5018253;28;20070;-76
2021/03/25 12:47:25;;;;;;;14.60;8.48;;;14.20;73.20;;;;;;5009635;28;20350;-77
2021/03/25 12:49:51;;;;;;;12.32;7.43;;;14.40;78.50;;;;;;5024742;28;20078;-77
2021/03/25 12:52:16;;;;;;;12.45;7.15;;;14.40;80.40;;;;;;5021759;28;20082;-77
2021/03/25 12:54:42;;;;;;;14.45;7.93;;;14.40;73.50;;;;;;5024804;28;20070;-77
2021/03/25 12:57:09;;;;;;;10.55;7.45;;;14.30;74.20;;;;;;5018836;28;20091;-76
2021/03/25 12:59:39;;;;;;;12.70;6.80;;;14.40;72.30;;;;;;5011824;28;20146;-76
2021/03/25 13:02:04;;;;;;;13.50;7.57;;;14.50;73.10;;;;;;5010545;28;20471;-77
2021/03/25 13:04:30;;;;;;;12.57;7.15;;;14.40;69.90;;;;;;5008192;28;20082;-75
2021/03/25 13:06:55;;;;;;;11.75;7.43;;;14.40;72.00;;;;;;5017273;28;20086;-75
2021/03/25 13:09:21;;;;;;;14.65;7.20;;;14.40;72.20;;;;;;5026311;28;20109;-76
2021/03/25 13:11:46;;;;;;;12.95;6.90;;;14.50;69.90;;;;;;5022520;28;20074;-75
2021/03/25 13:14:12;;;;;;;14.38;7.22;;;14.60;67.30;;;;;;5015814;28;20105;-75
2021/03/25 13:16:38;;;;;;;11.65;6.78;;;14.80;67.90;;;;;;5023522;28;20213;-74
2021/03/25 13:19:04;;;;;;;12.23;6.28;;;14.90;67.20;;;;;;5021912;28;20087;-75
2021/03/25 13:21:29;;;;;;;16.08;8.48;;;14.50;69.90;;;;;;5031272;28;20107;-75
2021/03/25 13:23:55;;;;;;;13.52;7.95;;;14.60;70.90;;;;;;5030579;28;20097;-75